Terminal Aerodrome Forecast
Issued by NWS Louisville, KY

Home | Current Version | Previous Version | Text Only | Print | Product List | Glossary On
Versions: 1 2 3 4 5 6 7 8 9 10 11 12 13 14 15 16 17 18 19 20 21
000
FTUS43 KLMK 291400 AAA
TAFLEX
TAF AMD
KLEX 291446Z 2915/3012 18011KT P6SM VCSH SCT025 BKN035
     FM291800 19011KT P6SM VCTS BKN035CB
     FM300100 17007KT P6SM SCT040 SCT250=

USA.gov is the U.S. government's official web portal to all federal, state and local government web resources and services.